Time;durP1;ratioP1;P1;durP2;ratioP2;P2;SDS_P1;SDS_P2;PMS_P1;PMS_P2;Temp;Humidity;BMP_temperature;BMP_pressure;BME280_temperature;BME280_humidity;BME280_pressure;Samples;Min_cycle;Max_cycle;Signal;HPM_P1;HPM_P2
2021/03/13 00:01:34;;;;;;;7.27;2.33;;;;;;;13.16;47.94;99299.97;5107580;28;20553;-55
2021/03/13 00:04:01;;;;;;;9.13;3.00;;;;;;;13.30;47.96;99300.09;5111204;27;20477;-54
2021/03/13 00:06:28;;;;;;;9.40;3.80;;;;;;;13.13;47.90;99299.97;5113090;28;20463;-50
2021/03/13 00:08:54;;;;;;;8.17;3.30;;;;;;;13.10;47.85;99293.03;5111883;27;20473;-49
2021/03/13 00:11:21;;;;;;;11.53;2.50;;;;;;;12.17;49.17;99285.25;5112681;28;20442;-50
2021/03/13 00:13:47;;;;;;;8.90;3.30;;;;;;;12.93;48.32;99282.53;5111347;27;20580;-54
2021/03/13 00:16:15;;;;;;;4.33;1.57;;;;;;;12.16;49.57;99278.34;5112622;28;20523;-53
2021/03/13 00:18:42;;;;;;;4.73;2.73;;;;;;;12.72;48.80;99278.03;5111085;27;20522;-57
2021/03/13 00:21:08;;;;;;;6.50;2.50;;;;;;;12.67;49.51;99280.59;5112609;28;20461;-52
2021/03/13 00:23:35;;;;;;;6.70;2.60;;;;;;;12.81;49.10;99283.28;5111800;27;20573;-48
2021/03/13 00:26:03;;;;;;;3.10;1.30;;;;;;;11.99;50.00;99273.78;5112052;28;20445;-54
2021/03/13 00:28:29;;;;;;;4.50;1.57;;;;;;;12.08;50.27;99279.94;5110870;27;20782;-52
2021/03/13 00:30:56;;;;;;;2.80;1.67;;;;;;;12.19;49.91;99283.53;5112423;28;20436;-50
2021/03/13 00:33:25;;;;;;;6.27;2.57;;;;;;;17.19;41.06;99270.44;5111165;27;20476;-51
2021/03/13 00:35:52;;;;;;;4.03;1.73;;;;;;;16.56;41.11;99277.84;5112074;28;20457;-49
2021/03/13 00:38:20;;;;;;;9.77;3.90;;;;;;;16.77;40.42;99276.81;5111478;27;20459;-56
2021/03/13 00:40:48;;;;;;;7.80;2.60;;;;;;;15.52;42.42;99289.50;5112070;28;20457;-47
2021/03/13 00:43:16;;;;;;;2.37;1.30;;;;;;;13.47;45.15;99295.94;5113775;27;21047;-51
2021/03/13 00:45:43;;;;;;;4.20;2.33;;;;;;;14.15;44.75;99292.81;5115684;28;20444;-53
2021/03/13 00:48:10;;;;;;;2.63;1.30;;;;;;;14.35;45.37;99294.59;5096156;28;20558;-53
2021/03/13 00:50:40;;;;;;;3.43;1.30;;;;;;;13.62;45.89;99295.16;5112188;28;20808;-55
2021/03/13 00:53:07;;;;;;;5.53;2.70;;;;;;;13.81;45.98;99300.44;5110929;27;20445;-51
2021/03/13 00:55:34;;;;;;;3.40;1.50;;;;;;;12.79;47.55;99296.22;5111634;28;20461;-53
2021/03/13 00:58:01;;;;;;;4.00;1.93;;;;;;;13.55;46.38;99290.81;5110099;27;20494;-55
2021/03/13 01:00:37;;;;;;;5.97;2.73;;;;;;;13.71;45.90;99294.34;5112073;28;20530;-51
2021/03/13 01:03:04;;;;;;;4.33;1.50;;;;;;;13.49;46.35;99301.97;5111042;27;20473;-51
2021/03/13 01:05:31;;;;;;;2.20;1.33;;;;;;;13.42;46.81;99300.16;5111330;28;20484;-56
2021/03/13 01:07:58;;;;;;;4.27;2.60;;;;;;;13.02;47.10;99302.47;5110967;27;20559;-56
2021/03/13 01:10:45;;;;;;;5.60;2.70;;;;;;;13.58;46.07;99288.22;5097835;28;20451;-52
2021/03/13 01:13:12;;;;;;;6.50;2.30;;;;;;;13.39;46.54;99275.97;5097185;28;20444;-54
2021/03/13 01:15:39;;;;;;;6.03;2.70;;;;;;;13.59;46.30;99282.16;5097657;28;20432;-53
2021/03/13 01:18:07;;;;;;;4.43;2.10;;;;;;;13.12;46.90;99287.88;5096475;28;20483;-53
2021/03/13 01:20:34;;;;;;;8.00;2.37;;;;;;;13.72;46.06;99275.34;5097781;28;20493;-53
2021/03/13 01:23:02;;;;;;;3.97;1.80;;;;;;;13.50;46.29;99271.75;5097313;28;20470;-56
2021/03/13 01:25:28;;;;;;;7.67;2.70;;;;;;;13.54;46.61;99268.31;5097791;28;20464;-50
2021/03/13 01:27:55;;;;;;;4.50;2.33;;;;;;;13.72;45.53;99279.66;5095347;28;20455;-50
2021/03/13 01:30:24;;;;;;;2.27;0.90;;;;;;;13.13;46.76;99268.88;5095437;28;20432;-48
2021/03/13 01:32:52;;;;;;;5.17;2.00;;;;;;;12.96;47.26;99272.19;5095805;28;20488;-54
2021/03/13 01:35:21;;;;;;;2.40;1.17;;;;;;;13.18;46.61;99269.78;5097282;28;20558;-51
2021/03/13 01:37:47;;;;;;;3.20;1.20;;;;;;;12.83;46.71;99282.44;5096573;28;20480;-55
2021/03/13 01:40:16;;;;;;;4.50;2.23;;;;;;;13.48;46.41;99269.16;5097604;28;20556;-58
2021/03/13 01:42:42;;;;;;;5.00;1.97;;;;;;;12.93;46.90;99264.44;5095970;28;20474;-53
2021/03/13 01:45:11;;;;;;;6.37;2.00;;;;;;;12.67;46.74;99263.31;5096944;28;20465;-54
2021/03/13 01:47:39;;;;;;;3.00;1.30;;;;;;;12.75;47.36;99259.94;5084041;28;20471;-49
2021/03/13 01:50:09;;;;;;;8.10;2.10;;;;;;;13.20;46.49;99256.00;5095609;28;20438;-47
2021/03/13 01:52:35;;;;;;;3.17;1.40;;;;;;;12.81;47.33;99252.22;5096501;28;20455;-54
2021/03/13 01:55:03;;;;;;;4.57;2.00;;;;;;;12.38;47.95;99258.75;5096543;28;20863;-48
2021/03/13 01:57:31;;;;;;;6.60;2.40;;;;;;;12.81;47.88;99253.09;5094606;28;20581;-52
2021/03/13 01:59:58;;;;;;;5.80;3.27;;;;;;;12.92;46.92;99260.09;5093245;28;20443;-49
2021/03/13 02:02:25;;;;;;;5.93;1.30;;;;;;;12.95;46.70;99247.16;5095704;28;20452;-56
2021/03/13 02:04:52;;;;;;;2.77;1.17;;;;;;;12.42;46.95;99251.88;5096792;28;20489;-51
2021/03/13 02:07:22;;;;;;;4.57;1.87;;;;;;;12.53;47.90;99259.75;5093093;28;20537;-49
2021/03/13 02:09:58;;;;;;;3.10;1.83;;;;;;;12.10;48.49;99245.50;5097272;28;20943;-45
2021/03/13 02:12:36;;;;;;;7.90;2.13;;;;;;;12.47;47.80;99250.22;5095596;28;20484;-53
2021/03/13 02:15:06;;;;;;;6.90;2.97;;;;;;;13.06;46.83;99250.72;5096415;28;21001;-53
2021/03/13 02:17:36;;;;;;;9.87;2.93;;;;;;;12.26;47.68;99251.72;5095078;28;20449;-51
2021/03/13 02:20:18;;;;;;;3.57;2.13;;;;;;;12.36;47.41;99257.00;5096558;28;20466;-53
2021/03/13 02:22:48;;;;;;;6.97;1.83;;;;;;;12.12;47.89;99250.69;5095548;28;20527;-57
2021/03/13 02:25:23;;;;;;;4.37;1.93;;;;;;;12.70;47.31;99236.63;5096484;28;20775;-51
2021/03/13 02:27:56;;;;;;;4.53;1.40;;;;;;;12.20;48.30;99243.03;5095183;28;20469;-52
2021/03/13 02:30:26;;;;;;;6.80;2.50;;;;;;;12.47;47.50;99245.03;5096739;28;20781;-51
2021/03/13 02:32:56;;;;;;;4.10;0.80;;;;;;;11.68;49.27;99255.31;5094274;28;21011;-52
2021/03/13 02:35:26;;;;;;;5.33;0.93;;;;;;;11.61;50.53;99248.31;5101998;28;20752;-51
2021/03/13 02:37:55;;;;;;;4.70;2.10;;;;;;;12.21;49.41;99240.44;5095052;28;21015;-50
2021/03/13 02:40:25;;;;;;;7.50;2.38;;;;;;;12.21;49.57;99229.25;5096381;28;20866;-50
2021/03/13 02:42:54;;;;;;;5.90;1.92;;;;;;;11.93;49.52;99227.19;5094432;28;20232;-54
2021/03/13 02:45:24;;;;;;;5.57;2.77;;;;;;;12.11;49.68;99230.88;5095226;28;20705;-54
2021/03/13 02:47:52;;;;;;;4.15;2.72;;;;;;;12.06;49.75;99219.59;5086089;28;20479;-51
2021/03/13 02:50:19;;;;;;;8.85;3.70;;;;;;;13.14;48.34;99211.06;5076554;28;20231;-55
2021/03/13 02:52:47;;;;;;;14.32;3.30;;;;;;;13.08;47.65;99215.34;5075504;28;20232;-53
2021/03/13 02:55:15;;;;;;;18.65;4.13;;;;;;;12.73;48.82;99212.50;5075881;28;20678;-51
2021/03/13 02:57:44;;;;;;;8.82;3.90;;;;;;;12.56;49.02;99211.50;5074574;28;20319;-58
2021/03/13 03:00:14;;;;;;;5.43;3.33;;;;;;;12.06;50.66;99206.69;5076378;28;20292;-49
2021/03/13 03:02:42;;;;;;;15.30;3.80;;;;;;;11.29;51.13;99205.69;5074875;28;20453;-51
2021/03/13 03:05:09;;;;;;;8.80;3.73;;;;;;;12.75;49.90;99203.88;5075774;28;20483;-52
2021/03/13 03:07:36;;;;;;;11.80;4.50;;;;;;;12.27;50.32;99206.03;5075227;28;20446;-53
2021/03/13 03:10:06;;;;;;;10.40;4.38;;;;;;;12.09;50.65;99201.53;5075686;28;20434;-49
2021/03/13 03:12:34;;;;;;;5.10;1.90;;;;;;;11.05;52.47;99198.47;5075242;28;20228;-51
2021/03/13 03:15:01;;;;;;;6.57;3.90;;;;;;;11.99;51.00;99196.25;5075209;28;20200;-54
2021/03/13 03:17:28;;;;;;;12.63;5.60;;;;;;;11.81;51.11;99183.13;5074918;28;20926;-50
2021/03/13 03:19:58;;;;;;;9.07;4.30;;;;;;;12.19;50.39;99182.69;5075866;28;20606;-50
2021/03/13 03:22:24;;;;;;;5.40;3.17;;;;;;;11.72;50.80;99178.69;5060769;28;20324;-55
2021/03/13 03:24:51;;;;;;;12.53;4.33;;;;;;;12.17;50.02;99176.66;5055370;28;20644;-55
2021/03/13 03:27:18;;;;;;;5.97;2.90;;;;;;;11.77;50.17;99176.16;5054561;28;20768;-52
2021/03/13 03:29:44;;;;;;;11.13;5.17;;;;;;;12.11;50.55;99166.25;5055768;28;20198;-50
2021/03/13 03:32:25;;;;;;;13.43;5.30;;;;;;;12.53;49.08;99162.31;5049452;28;20491;-52
2021/03/13 03:34:53;;;;;;;10.23;4.70;;;;;;;12.10;49.88;99167.09;5065224;28;20456;-55
2021/03/13 03:37:20;;;;;;;13.75;4.65;;;;;;;11.76;51.13;99164.97;5054439;28;20545;-52
2021/03/13 03:39:47;;;;;;;11.60;5.20;;;;;;;12.32;49.88;99156.94;5055550;28;20208;-51
2021/03/13 03:42:14;;;;;;;14.38;6.75;;;;;;;12.65;49.08;99147.72;5050015;28;20757;-54
2021/03/13 03:44:43;;;;;;;10.70;5.70;;;;;;;12.42;50.27;99149.28;5055224;28;20208;-50
2021/03/13 03:47:10;;;;;;;9.27;4.47;;;;;;;11.84;50.43;99150.41;5053860;28;20444;-48
2021/03/13 03:49:39;;;;;;;18.57;5.83;;;;;;;12.27;50.39;99146.56;5055331;28;20472;-47
2021/03/13 03:52:07;;;;;;;8.57;4.07;;;;;;;12.75;49.08;99139.19;5054529;28;20440;-52
2021/03/13 03:54:36;;;;;;;12.77;5.47;;;;;;;12.17;50.32;99135.28;5055077;28;20466;-56
2021/03/13 03:57:05;;;;;;;23.80;7.27;;;;;;;12.26;50.36;99131.91;5053947;28;20499;-56
2021/03/13 03:59:33;;;;;;;22.83;7.53;;;;;;;12.42;50.66;99130.31;5055323;28;20490;-49
2021/03/13 04:02:00;;;;;;;26.37;7.93;;;;;;;12.53;49.95;99125.22;5057066;28;20440;-53
2021/03/13 04:04:28;;;;;;;18.63;5.70;;;;;;;12.17;50.64;99118.88;5066751;28;20442;-53
2021/03/13 04:06:56;;;;;;;11.70;4.90;;;;;;;12.12;50.98;99113.69;5056135;28;20472;-50
2021/03/13 04:09:25;;;;;;;21.37;7.50;;;;;;;12.04;50.79;99110.16;5078853;28;20447;-51
2021/03/13 04:11:53;;;;;;;14.40;5.60;;;;;;;12.25;50.61;99102.59;5086821;28;20746;-50
2021/03/13 04:14:20;;;;;;;15.90;6.30;;;;;;;12.19;50.84;99102.53;5094437;28;20457;-50
2021/03/13 04:16:47;;;;;;;10.13;3.00;;;;;;;11.32;52.55;99101.59;5090595;28;20451;-51
2021/03/13 04:19:14;;;;;;;21.17;8.17;;;;;;;12.35;51.34;99098.38;5094592;28;20793;-49
2021/03/13 04:21:42;;;;;;;17.60;7.33;;;;;;;12.18;50.93;99095.66;5094980;28;20584;-46
2021/03/13 04:24:10;;;;;;;19.30;8.73;;;;;;;12.91;50.21;99082.34;5094295;28;20739;-49
2021/03/13 04:26:36;;;;;;;27.80;9.53;;;;;;;12.83;50.17;99083.16;5095082;28;20462;-47
2021/03/13 04:29:04;;;;;;;15.20;6.50;;;;;;;12.83;50.10;99085.75;5074118;28;20441;-55
2021/03/13 04:31:32;;;;;;;47.40;14.70;;;;;;;13.20;49.59;99074.72;5074622;28;20748;-53
2021/03/13 04:34:00;;;;;;;21.77;8.90;;;;;;;12.78;50.21;99065.88;5072950;28;20506;-51
2021/03/13 04:36:29;;;;;;;18.43;7.23;;;;;;;12.42;51.13;99074.28;5055373;28;20430;-53
2021/03/13 04:38:57;;;;;;;24.03;10.00;;;;;;;12.50;50.70;99061.41;5063533;28;20455;-50
2021/03/13 04:41:25;;;;;;;18.77;6.67;;;;;;;12.48;50.57;99063.13;5054168;28;20475;-52
2021/03/13 04:43:52;;;;;;;17.27;7.33;;;;;;;12.96;50.12;99050.47;5052755;28;20529;-50
2021/03/13 04:46:20;;;;;;;25.93;11.23;;;;;;;14.13;48.69;99055.06;5057689;28;20752;-52
2021/03/13 04:48:48;;;;;;;27.17;9.00;;;;;;;13.79;48.00;99047.28;5055935;28;20562;-56
2021/03/13 04:51:17;;;;;;;26.23;7.90;;;;;;;12.89;49.16;99042.66;5057731;28;20522;-55
2021/03/13 04:53:44;;;;;;;25.60;8.67;;;;;;;13.01;48.89;99037.53;5056308;28;20462;-49
2021/03/13 04:56:11;;;;;;;18.67;8.63;;;;;;;13.21;49.42;99037.63;5056761;28;20460;-53
2021/03/13 04:58:38;;;;;;;25.13;10.30;;;;;;;13.00;49.09;99025.44;5049734;28;20463;-54
2021/03/13 05:01:05;;;;;;;16.03;8.40;;;;;;;13.05;49.87;99021.16;5057674;28;20897;-53
2021/03/13 05:03:39;;;;;;;26.53;9.60;;;;;;;13.25;49.75;99015.19;5089588;28;20458;-53
2021/03/13 05:06:07;;;;;;;28.83;10.00;;;;;;;12.69;49.86;99020.13;5078608;28;20436;-52
2021/03/13 05:08:34;;;;;;;18.63;9.13;;;;;;;13.20;48.80;99014.28;5076952;28;20476;-56
2021/03/13 05:11:01;;;;;;;28.07;11.00;;;;;;;12.92;49.79;99011.63;5077661;28;20520;-51
2021/03/13 05:13:28;;;;;;;28.20;9.70;;;;;;;13.06;49.24;99014.25;5076770;28;20449;-50
2021/03/13 05:15:54;;;;;;;33.00;14.30;;;;;;;13.68;48.80;99000.63;5077452;28;20463;-54
2021/03/13 05:18:21;;;;;;;19.73;10.00;;;;;;;13.32;49.39;98995.31;5075140;28;20571;-50
2021/03/13 05:20:48;;;;;;;28.83;11.97;;;;;;;13.74;48.29;98982.50;5076162;28;20436;-50
2021/03/13 05:23:15;;;;;;;23.70;10.80;;;;;;;12.92;49.48;98985.75;5055741;28;20490;-50
2021/03/13 05:25:43;;;;;;;27.70;11.30;;;;;;;12.65;50.16;98983.03;5056796;28;20503;-48
2021/03/13 05:28:09;;;;;;;20.50;9.60;;;;;;;12.47;50.55;98976.03;5055575;28;20476;-48
2021/03/13 05:30:37;;;;;;;25.60;11.27;;;;;;;12.53;50.90;98970.91;5057084;28;20498;-50
2021/03/13 05:33:03;;;;;;;20.00;10.70;;;;;;;12.91;52.31;98963.28;5055331;28;20461;-52
2021/03/13 05:35:30;;;;;;;26.80;10.37;;;;;;;13.06;50.45;98957.28;5056868;28;20469;-52
2021/03/13 05:37:58;;;;;;;23.47;9.43;;;;;;;13.29;49.21;98954.78;5055108;28;20597;-54
2021/03/13 05:40:24;;;;;;;31.20;11.97;;;;;;;14.13;47.82;98947.03;5057145;28;20470;-49
2021/03/13 05:42:51;;;;;;;25.03;11.30;;;;;;;13.97;47.92;98933.22;5049932;28;20455;-47
2021/03/13 05:45:18;;;;;;;35.17;14.27;;;;;;;14.18;47.21;98921.09;5055729;28;20446;-57
2021/03/13 05:47:45;;;;;;;25.10;12.33;;;;;;;13.60;48.90;98925.47;5055236;28;20534;-53
2021/03/13 05:50:14;;;;;;;38.40;15.10;;;;;;;13.97;48.40;98911.59;5056522;28;20448;-50
2021/03/13 05:52:44;;;;;;;39.50;14.20;;;;;;;13.43;47.73;98915.91;5054850;28;20739;-55
2021/03/13 05:55:12;;;;;;;23.80;12.70;;;;;;;13.15;48.91;98907.25;5055855;28;20930;-50
2021/03/13 05:57:38;;;;;;;31.37;14.20;;;;;;;13.92;48.92;98896.06;5054497;28;20466;-55
2021/03/13 06:00:08;;;;;;;34.17;14.90;;;;;;;12.96;49.91;98894.28;5057895;28;20457;-54
2021/03/13 06:02:36;;;;;;;30.67;14.53;;;;;;;13.12;50.11;98886.56;5051914;27;20802;-52
2021/03/13 06:05:03;;;;;;;22.63;10.17;;;;;;;12.76;50.57;98887.31;5087823;28;20509;-53
2021/03/13 06:07:30;;;;;;;29.20;13.87;;;;;;;13.24;49.78;98874.47;5075621;28;20475;-52
2021/03/13 06:09:57;;;;;;;31.03;15.17;;;;;;;12.72;51.85;98874.38;5076622;28;20468;-52
2021/03/13 06:12:25;;;;;;;38.40;13.87;;;;;;;13.17;51.32;98861.53;5076719;28;20471;-48
2021/03/13 06:14:53;;;;;;;34.53;13.57;;;;;;;13.41;50.15;98849.44;5098074;28;20437;-51
2021/03/13 06:17:22;;;;;;;31.37;13.07;;;;;;;14.25;49.16;98850.16;5074994;28;20768;-54
2021/03/13 06:19:51;;;;;;;31.57;14.53;;;;;;;13.84;49.38;98849.41;5076464;28;20795;-53
2021/03/13 06:22:42;;;;;;;29.90;10.70;;;;;;;13.42;50.43;98833.03;5055639;28;20525;-50
2021/03/13 06:25:23;;;;;;;31.77;14.50;;;;;;;14.62;48.81;98831.00;5045362;28;20442;-57
2021/03/13 06:28:07;;;;;;;14.93;7.37;;;;;;;13.16;50.40;98823.53;5060948;28;20753;-46
2021/03/13 06:30:36;;;;;;;26.17;12.50;;;;;;;13.20;51.46;98812.31;5056098;28;20547;-53
2021/03/13 06:33:19;;;;;;;25.67;11.17;;;;;;;12.85;52.06;98805.38;5074282;28;20852;-49
2021/03/13 06:35:46;;;;;;;32.93;12.40;;;;;;;13.01;51.75;98803.69;5069428;28;20455;-47
2021/03/13 06:38:15;;;;;;;30.13;12.73;;;;;;;13.68;50.96;98798.50;5075030;28;20457;-53
2021/03/13 06:40:42;;;;;;;30.70;11.77;;;;;;;12.79;52.57;98791.59;5069462;28;20446;-46
2021/03/13 06:43:27;;;;;;;26.27;11.87;;;;;;;13.77;50.61;98785.50;5053717;28;20455;-52
2021/03/13 06:46:02;;;;;;;25.07;12.77;;;;;;;13.92;50.54;98779.41;5054652;28;20540;-51
2021/03/13 06:48:31;;;;;;;36.33;15.97;;;;;;;14.12;51.33;98768.97;5053750;28;20496;-54
2021/03/13 06:51:18;;;;;;;33.47;11.53;;;;;;;12.96;52.48;98764.84;5055396;28;20430;-54
2021/03/13 06:53:46;;;;;;;23.47;11.77;;;;;;;13.53;51.80;98758.78;5048599;28;20764;-53
2021/03/13 06:56:13;;;;;;;30.10;12.00;;;;;;;13.26;51.96;98746.72;5055517;28;20430;-56
2021/03/13 06:58:41;;;;;;;28.90;13.33;;;;;;;13.83;52.19;98751.78;5052861;28;20490;-55
2021/03/13 07:01:09;;;;;;;23.57;11.20;;;;;;;14.58;49.69;98738.44;5054963;28;20443;-56
2021/03/13 07:03:48;;;;;;;29.83;11.00;;;;;;;13.72;50.88;98727.63;5074012;28;20468;-51
2021/03/13 07:06:16;;;;;;;25.13;10.53;;;;;;;14.22;50.43;98714.47;5054972;28;20480;-53
2021/03/13 07:08:44;;;;;;;35.77;15.20;;;;;;;14.87;49.98;98711.44;5052954;28;20833;-53
2021/03/13 07:11:16;;;;;;;28.03;11.30;;;;;;;14.03;51.26;98706.78;5054797;28;20474;-54
2021/03/13 07:13:44;;;;;;;25.33;12.00;;;;;;;13.53;52.69;98700.94;5053344;28;20457;-53
2021/03/13 07:16:34;;;;;;;15.83;7.80;;;;;;;13.33;53.58;98692.31;5054697;28;20445;-50
2021/03/13 07:19:04;;;;;;;29.67;12.20;;;;;;;14.01;52.26;98685.19;5053155;28;20933;-49
2021/03/13 07:21:32;;;;;;;21.20;11.47;;;;;;;15.20;49.72;98679.97;5058415;28;20478;-52
2021/03/13 07:24:02;;;;;;;13.10;4.23;;;;;;;12.64;52.40;98680.31;5053445;28;20454;-55
2021/03/13 07:26:33;;;;;;;21.90;10.00;;;;;;;14.01;51.47;98665.28;5054901;28;20809;-51
2021/03/13 07:29:01;;;;;;;21.50;8.43;;;;;;;14.53;50.24;98668.44;5053353;28;20926;-53
2021/03/13 07:31:30;;;;;;;21.10;5.93;;;;;;;12.86;53.09;98669.97;5055280;28;20759;-52
2021/03/13 07:34:00;;;;;;;11.80;7.87;;;;;;;13.68;52.11;98645.63;5070585;28;20833;-55
2021/03/13 07:36:27;;;;;;;5.03;2.70;;;;;;;12.41;53.51;98644.97;5062744;28;20441;-51
2021/03/13 07:38:58;;;;;;;19.53;9.30;;;;;;;14.13;51.74;98633.25;5073654;28;20475;-49
2021/03/13 07:41:26;;;;;;;11.80;5.73;;;;;;;13.45;52.03;98625.81;5061552;28;20437;-50
2021/03/13 07:43:53;;;;;;;13.87;4.90;;;;;;;13.48;52.25;98623.22;5073730;28;20441;-53
2021/03/13 07:46:21;;;;;;;11.40;6.20;;;;;;;13.33;52.22;98619.81;5074962;28;20425;-49
2021/03/13 07:48:49;;;;;;;14.57;6.87;;;;;;;13.52;52.77;98609.41;5097279;28;20478;-52
2021/03/13 07:51:16;;;;;;;15.27;8.43;;;;;;;14.47;50.47;98600.16;5073181;28;20433;-49
2021/03/13 07:53:43;;;;;;;14.40;7.73;;;;;;;14.82;49.55;98594.66;5075351;28;20485;-55
2021/03/13 07:56:12;;;;;;;16.00;7.83;;;;;;;14.23;50.29;98584.78;5059887;28;21387;-55
2021/03/13 07:58:39;;;;;;;23.63;10.10;;;;;;;14.51;50.80;98576.75;5074954;28;20453;-52
2021/03/13 08:01:06;;;;;;;40.50;18.13;;;;;;;15.03;49.51;98568.50;5073727;28;21292;-56
2021/03/13 08:03:45;;;;;;;41.63;17.23;;;;;;;14.25;50.17;98558.84;5073307;28;20555;-52
2021/03/13 08:06:14;;;;;;;23.37;8.30;;;;;;;14.38;50.64;98542.28;5072432;28;20793;-51
2021/03/13 08:08:41;;;;;;;23.20;9.90;;;;;;;14.17;51.50;98530.38;5070103;28;20483;-52
2021/03/13 08:11:09;;;;;;;20.80;9.57;;;;;;;13.63;51.01;98519.53;5071769;28;20471;-56
2021/03/13 08:14:03;;;;;;;16.90;8.27;;;;;;;13.38;52.06;98531.72;5068256;28;20466;-55
2021/03/13 08:16:42;;;;;;;9.30;4.80;;;;;;;13.20;52.64;98507.66;5073095;28;20554;-47
2021/03/13 08:19:33;;;;;;;9.20;4.17;;;;;;;13.09;52.63;98510.28;5072257;28;20485;-50
2021/03/13 08:22:16;;;;;;;16.63;7.77;;;;;;;13.61;52.69;98510.94;5071613;28;20896;-48
2021/03/13 08:24:46;;;;;;;19.93;6.63;;;;;;;13.00;53.10;98515.50;5075631;28;20474;-50
2021/03/13 08:27:14;;;;;;;6.40;3.10;;;;;;;13.22;52.97;98512.81;5073070;28;20485;-52
2021/03/13 08:29:57;;;;;;;4.80;2.77;;;;;;;13.04;52.83;98504.28;5076376;28;20489;-50
2021/03/13 08:33:06;;;;;;;19.20;8.87;;;;;;;13.81;52.29;98502.16;5081910;28;20481;-57
2021/03/13 08:35:49;;;;;;;6.50;3.13;;;;;;;12.93;53.52;98490.53;5098582;28;20465;-52
2021/03/13 08:38:18;;;;;;;24.77;10.23;;;;;;;13.20;54.38;98470.53;5099562;28;20459;-51
2021/03/13 08:40:51;;;;;;;3.50;1.70;;;;;;;12.05;55.04;98476.06;5101824;28;20462;-51
2021/03/13 08:43:33;;;;;;;10.17;5.17;;;;;;;13.42;53.07;98466.09;5082303;28;20531;-49
2021/03/13 08:45:59;;;;;;;13.57;5.80;;;;;;;13.00;52.84;98450.81;5098292;28;20524;-52
2021/03/13 08:48:54;;;;;;;3.97;1.83;;;;;;;12.19;55.90;98440.72;5101336;27;20510;-50
2021/03/13 08:51:22;;;;;;;5.70;3.30;;;;;;;12.66;53.46;98427.66;5080139;28;20435;-51
2021/03/13 08:53:49;;;;;;;6.50;3.23;;;;;;;13.22;53.00;98430.84;5079945;28;20452;-51
2021/03/13 08:56:38;;;;;;;5.00;3.13;;;;;;;13.75;52.33;98411.50;5074932;28;20466;-47
2021/03/13 08:59:15;;;;;;;18.20;7.43;;;;;;;13.14;52.86;98411.03;5079813;28;20456;-49
2021/03/13 09:02:02;;;;;;;4.57;3.10;;;;;;;13.60;52.92;98391.75;5076238;28;20459;-54
2021/03/13 09:04:30;;;;;;;5.60;2.80;;;;;;;14.08;51.50;98391.31;5074318;28;20481;-53
2021/03/13 09:06:58;;;;;;;5.33;2.80;;;;;;;14.24;51.78;98385.94;5073747;28;20470;-55
2021/03/13 09:09:26;;;;;;;8.53;3.50;;;;;;;14.31;50.89;98383.25;5074553;28;20453;-55
2021/03/13 09:11:57;;;;;;;23.73;9.93;;;;;;;14.70;50.91;98377.63;5073225;28;20462;-50
2021/03/13 09:14:24;;;;;;;6.37;2.77;;;;;;;14.31;49.46;98378.06;5074020;28;20891;-53
2021/03/13 09:16:50;;;;;;;7.70;3.33;;;;;;;15.00;49.55;98366.84;5073493;28;20531;-51
2021/03/13 09:19:17;;;;;;;8.63;3.50;;;;;;;13.97;51.65;98367.22;5074159;28;20577;-46
2021/03/13 09:21:47;;;;;;;3.90;2.90;;;;;;;13.91;52.17;98374.16;5072276;28;20562;-53
2021/03/13 09:24:16;;;;;;;5.60;3.40;;;;;;;13.71;52.93;98373.50;5073691;28;20461;-51
2021/03/13 09:26:43;;;;;;;7.17;3.37;;;;;;;13.51;53.69;98351.25;5073612;28;20463;-55
2021/03/13 09:29:09;;;;;;;4.90;1.90;;;;;;;13.43;53.34;98360.78;5075256;28;20489;-51
2021/03/13 09:31:36;;;;;;;3.80;2.03;;;;;;;13.31;54.02;98367.78;5075622;28;20774;-52
2021/03/13 09:34:12;;;;;;;5.47;3.30;;;;;;;13.94;52.64;98351.72;5089389;28;20481;-47
2021/03/13 09:36:50;;;;;;;8.50;3.00;;;;;;;13.89;52.92;98350.00;5071814;28;20555;-51
2021/03/13 09:39:26;;;;;;;2.00;1.23;;;;;;;12.41;56.03;98366.53;5112241;28;20490;-48
2021/03/13 09:42:09;;;;;;;4.93;2.90;;;;;;;13.03;55.71;98351.56;5088133;28;20519;-49
2021/03/13 09:44:38;;;;;;;5.43;2.50;;;;;;;13.18;55.63;98361.81;5097087;28;20737;-47
2021/03/13 09:47:16;;;;;;;1.60;0.70;;;;;;;13.28;56.24;98357.41;5074784;28;20570;-53
2021/03/13 09:49:44;;;;;;;2.67;1.30;;;;;;;12.27;57.72;98366.59;5108745;28;20513;-52
2021/03/13 09:52:12;;;;;;;2.33;1.17;;;;;;;12.86;56.33;98370.63;5076198;28;20490;-54
2021/03/13 09:54:40;;;;;;;5.03;0.67;;;;;;;12.07;56.42;98373.53;5074263;28;20532;-54
2021/03/13 09:57:08;;;;;;;1.60;0.50;;;;;;;12.34;56.13;98351.94;5075888;28;20471;-46
2021/03/13 09:59:35;;;;;;;1.73;0.60;;;;;;;12.17;56.20;98375.25;5073877;28;20465;-52
2021/03/13 10:02:02;;;;;;;1.40;0.50;;;;;;;12.52;55.75;98366.50;5060911;28;20442;-50
2021/03/13 10:04:30;;;;;;;3.97;0.87;;;;;;;12.77;55.54;98358.59;5075416;28;20758;-52
2021/03/13 10:06:57;;;;;;;1.80;0.80;;;;;;;13.26;53.88;98368.66;5061573;28;20441;-52
2021/03/13 10:09:24;;;;;;;1.60;0.53;;;;;;;13.31;52.64;98369.47;5073944;28;20487;-49
2021/03/13 10:11:52;;;;;;;1.50;0.70;;;;;;;13.24;52.81;98359.19;5059656;28;20466;-49
2021/03/13 10:14:19;;;;;;;2.23;0.50;;;;;;;13.27;52.63;98360.88;5073202;28;20494;-49
2021/03/13 10:16:47;;;;;;;1.60;0.77;;;;;;;12.53;53.75;98363.06;5063667;28;20473;-54
2021/03/13 10:19:35;;;;;;;1.83;0.50;;;;;;;12.51;53.21;98359.59;5089074;28;20490;-53
2021/03/13 10:22:14;;;;;;;1.57;0.50;;;;;;;12.90;52.22;98353.38;5057406;28;20464;-49
2021/03/13 10:24:45;;;;;;;3.40;0.70;;;;;;;14.31;51.11;98344.38;5072998;28;20441;-54
2021/03/13 10:27:19;;;;;;;5.67;0.60;;;;;;;13.55;51.34;98350.34;5065459;28;20481;-52
2021/03/13 10:29:50;;;;;;;1.97;0.70;;;;;;;12.89;52.12;98343.88;5084024;28;20476;-50
2021/03/13 10:32:22;;;;;;;1.63;0.60;;;;;;;13.71;51.16;98345.00;5066194;28;20553;-49
2021/03/13 10:35:04;;;;;;;1.70;0.70;;;;;;;13.96;51.49;98349.94;5083569;28;20912;-51
2021/03/13 10:37:48;;;;;;;3.03;0.53;;;;;;;13.52;50.67;98354.69;5069698;28;20490;-51
2021/03/13 10:40:34;;;;;;;3.80;0.60;;;;;;;13.51;50.30;98346.06;5072594;28;20468;-54
2021/03/13 10:43:23;;;;;;;1.70;0.60;;;;;;;13.23;50.19;98336.75;5065823;28;20461;-49
2021/03/13 10:46:17;;;;;;;2.87;0.77;;;;;;;13.57;49.75;98327.88;5074070;28;20486;-49
2021/03/13 10:48:58;;;;;;;2.17;0.80;;;;;;;13.02;50.61;98337.75;5041438;28;20926;-53
2021/03/13 10:51:26;;;;;;;3.07;1.23;;;;;;;13.23;49.31;98336.75;5072752;28;20900;-53
2021/03/13 10:53:54;;;;;;;2.47;0.57;;;;;;;13.96;49.08;98331.81;5064435;28;20463;-52
2021/03/13 10:56:21;;;;;;;1.90;0.70;;;;;;;13.84;48.76;98322.44;5082567;28;20465;-55
2021/03/13 10:58:49;;;;;;;2.40;0.43;;;;;;;14.38;47.79;98324.41;5065674;28;20566;-49
2021/03/13 11:01:17;;;;;;;1.97;0.63;;;;;;;13.86;48.79;98329.31;5083412;28;20446;-49
2021/03/13 11:03:45;;;;;;;4.00;0.93;;;;;;;14.28;48.12;98322.78;5087673;28;20493;-49
2021/03/13 11:06:12;;;;;;;2.47;0.93;;;;;;;14.57;47.54;98326.75;5093430;28;20458;-52
2021/03/13 11:08:39;;;;;;;4.60;0.83;;;;;;;14.12;47.67;98324.72;5087014;28;20485;-50
2021/03/13 11:11:10;;;;;;;5.43;1.63;;;;;;;14.15;47.09;98306.53;5095813;28;20712;-52
2021/03/13 11:13:37;;;;;;;5.47;1.43;;;;;;;14.14;47.62;98308.25;5084686;28;20598;-56
2021/03/13 11:16:19;;;;;;;12.07;1.30;;;;;;;13.59;47.47;98323.53;5090592;28;20479;-52
2021/03/13 11:18:46;;;;;;;7.13;1.20;;;;;;;14.39;46.85;98297.59;5085582;28;20477;-53
2021/03/13 11:21:12;;;;;;;2.53;0.70;;;;;;;15.00;45.62;98309.75;5088434;28;20440;-49
2021/03/13 11:23:40;;;;;;;2.50;0.77;;;;;;;14.85;45.83;98300.44;5089623;28;20505;-49
2021/03/13 11:26:09;;;;;;;3.43;1.30;;;;;;;14.74;45.75;98292.81;5088168;28;20568;-51
2021/03/13 11:28:36;;;;;;;4.30;1.10;;;;;;;13.69;47.26;98287.19;5083427;28;20484;-55
2021/03/13 11:31:03;;;;;;;11.70;1.00;;;;;;;14.92;46.03;98304.66;5081063;28;20442;-51
2021/03/13 11:33:30;;;;;;;5.93;1.43;;;;;;;15.14;45.81;98293.94;5070230;28;20484;-48
2021/03/13 11:35:57;;;;;;;2.87;0.50;;;;;;;14.54;45.92;98280.09;5061193;28;20442;-52
2021/03/13 11:38:30;;;;;;;3.60;1.10;;;;;;;14.68;46.50;98279.91;5088241;28;20507;-46
2021/03/13 11:40:57;;;;;;;2.53;0.80;;;;;;;13.87;46.61;98297.34;5084557;28;20496;-52